Time;durP1;ratioP1;P1;durP2;ratioP2;P2;SDS_P1;SDS_P2;PMS_P1;PMS_P2;Temp;Humidity;BMP_temperature;BMP_pressure;BME280_temperature;BME280_humidity;BME280_pressure;Samples;Min_cycle;Max_cycle;Signal;HPM_P1;HPM_P2
2021/06/19 00:00:34;;;;;;;7.50;6.80;;;;;;;18.74;87.54;95440.91;5040226;28;20238;-67
2021/06/19 00:03:02;;;;;;;8.33;7.50;;;;;;;18.56;88.53;95448.25;5044854;28;20254;-69
2021/06/19 00:05:32;;;;;;;8.90;8.03;;;;;;;18.53;88.63;95440.72;5030717;28;20247;-68
2021/06/19 00:08:02;;;;;;;7.87;6.50;;;;;;;18.51;88.78;95458.88;5038201;28;20250;-69
2021/06/19 00:10:30;;;;;;;7.03;6.53;;;;;;;18.47;89.06;95451.34;5043837;28;20310;-68
2021/06/19 00:12:58;;;;;;;7.23;6.83;;;;;;;18.46;89.09;95451.53;5035876;28;20226;-69
2021/06/19 00:15:26;;;;;;;9.53;7.97;;;;;;;18.46;88.93;95449.69;5034071;28;20333;-68
2021/06/19 00:17:55;;;;;;;7.87;7.47;;;;;;;18.51;88.88;95445.50;5039643;28;20246;-69
2021/06/19 00:20:25;;;;;;;6.10;5.50;;;;;;;18.53;88.87;95454.09;5033620;28;21315;-68
2021/06/19 00:22:55;;;;;;;9.00;8.10;;;;;;;18.53;88.86;95456.75;5041780;28;20226;-68
2021/06/19 00:25:25;;;;;;;8.03;7.37;;;;;;;18.53;88.58;95459.44;5037587;28;20310;-69
2021/06/19 00:27:53;;;;;;;7.67;7.17;;;;;;;18.54;88.59;95451.16;5041920;28;20222;-68
2021/06/19 00:30:23;;;;;;;6.73;6.37;;;;;;;18.57;88.54;95465.94;5039502;28;20416;-69
2021/06/19 00:32:53;;;;;;;7.80;7.30;;;;;;;18.55;88.49;95466.16;5040362;28;20214;-68
2021/06/19 00:35:21;;;;;;;16.53;7.33;;;;;;;18.58;88.79;95467.56;5032616;28;20711;-69
2021/06/19 00:37:51;;;;;;;7.13;6.30;;;;;;;18.62;88.67;95458.00;5031761;28;20234;-69
2021/06/19 00:40:21;;;;;;;6.60;6.20;;;;;;;18.69;88.65;95453.38;5037824;28;20253;-68
2021/06/19 00:42:54;;;;;;;6.57;6.10;;;;;;;18.78;88.83;95457.28;5035462;28;20238;-68
2021/06/19 00:45:24;;;;;;;7.37;6.97;;;;;;;18.89;89.80;95456.41;5040009;28;20257;-68
2021/06/19 00:47:52;;;;;;;6.50;6.20;;;;;;;19.00;90.08;95466.22;5033881;28;20224;-68
2021/06/19 00:50:21;;;;;;;7.17;6.67;;;;;;;19.08;89.58;95461.53;5043420;28;20250;-69
2021/06/19 00:52:49;;;;;;;6.50;6.10;;;;;;;19.16;89.27;95455.78;5038726;28;20277;-68
2021/06/19 00:55:18;;;;;;;6.73;6.33;;;;;;;19.19;89.12;95468.66;5030536;28;20286;-68
2021/06/19 00:57:48;;;;;;;7.50;7.10;;;;;;;19.25;89.85;95463.16;5039005;28;20602;-68
2021/06/19 01:00:17;;;;;;;7.60;7.00;;;;;;;19.36;89.93;95468.69;5038620;28;20262;-69
2021/06/19 01:02:46;;;;;;;7.77;7.27;;;;;;;19.41;89.77;95456.19;5039030;28;20234;-68
2021/06/19 01:05:15;;;;;;;7.97;7.50;;;;;;;19.54;91.19;95465.75;5041197;28;20233;-68
2021/06/19 01:07:43;;;;;;;9.13;8.37;;;;;;;19.67;90.76;95475.34;5032242;28;20461;-68
2021/06/19 01:10:12;;;;;;;7.77;7.37;;;;;;;19.80;90.54;95475.81;5034003;28;20314;-68
2021/06/19 01:12:42;;;;;;;11.17;9.40;;;;;;;19.90;90.33;95485.84;5040201;28;20221;-68
2021/06/19 01:15:13;;;;;;;9.17;8.50;;;;;;;19.96;90.24;95484.88;5032060;28;20472;-68
2021/06/19 01:17:42;;;;;;;11.17;9.93;;;;;;;20.00;90.40;95490.53;5038197;28;20215;-68
2021/06/19 01:20:13;;;;;;;10.73;9.87;;;;;;;19.95;90.35;95488.63;5036498;28;20218;-69
2021/06/19 01:22:45;;;;;;;8.87;8.17;;;;;;;20.01;90.20;95490.28;5037484;28;20223;-69
2021/06/19 01:25:18;;;;;;;9.60;8.90;;;;;;;19.99;89.96;95489.72;5037997;28;20915;-68
2021/06/19 01:27:49;;;;;;;8.23;7.53;;;;;;;20.03;89.67;95480.16;5036644;28;20222;-69
2021/06/19 01:30:18;;;;;;;7.73;7.23;;;;;;;20.01;89.74;95479.56;5036973;28;20231;-69
2021/06/19 01:32:47;;;;;;;10.33;9.37;;;;;;;20.03;89.58;95482.84;5038811;28;20625;-68
2021/06/19 01:35:16;;;;;;;9.93;8.87;;;;;;;19.93;89.62;95489.91;5033471;28;20223;-69
2021/06/19 01:37:45;;;;;;;9.87;9.00;;;;;;;19.86;89.53;95492.78;5034761;28;20230;-68
2021/06/19 01:40:17;;;;;;;10.10;9.40;;;;;;;19.66;90.27;95485.25;5037426;28;20221;-68
2021/06/19 01:42:48;;;;;;;9.37;8.93;;;;;;;19.57;90.71;95481.38;5040581;28;20479;-69
2021/06/19 01:45:18;;;;;;;9.33;8.53;;;;;;;19.51;90.72;95483.13;5038604;28;20258;-68
2021/06/19 01:47:47;;;;;;;9.47;8.70;;;;;;;19.44;90.71;95481.66;5037734;28;20227;-69
2021/06/19 01:50:18;;;;;;;8.07;7.50;;;;;;;19.47;90.14;95476.63;5036649;28;20238;-69
2021/06/19 01:52:47;;;;;;;7.30;6.90;;;;;;;19.61;89.42;95471.78;5034600;28;20234;-69
2021/06/19 01:55:17;;;;;;;8.13;7.63;;;;;;;19.73;88.26;95477.03;5048733;28;20227;-69
2021/06/19 01:57:46;;;;;;;7.20;6.53;;;;;;;19.89;87.02;95473.53;5037779;28;20249;-68
2021/06/19 02:00:17;;;;;;;6.87;6.47;;;;;;;19.90;86.80;95480.50;5042006;28;20211;-69
2021/06/19 02:02:46;;;;;;;7.30;6.83;;;;;;;19.80;86.85;95491.06;5038810;28;20223;-69
2021/06/19 02:05:16;;;;;;;9.90;7.83;;;;;;;19.55;87.70;95500.28;5041410;28;20238;-68
2021/06/19 02:07:47;;;;;;;5.40;5.10;;;;;;;19.57;87.34;95505.47;5039366;28;20215;-68
2021/06/19 02:10:18;;;;;;;7.10;6.67;;;;;;;19.58;87.26;95497.19;5045719;28;20723;-69
2021/06/19 02:12:48;;;;;;;9.70;9.00;;;;;;;19.49;87.72;95506.66;5041390;28;20955;-68
2021/06/19 02:15:16;;;;;;;6.43;5.87;;;;;;;19.54;87.56;95509.38;5039097;28;20250;-68
2021/06/19 02:17:45;;;;;;;7.13;6.60;;;;;;;19.46;87.81;95503.63;5038900;28;20244;-69
2021/06/19 02:20:15;;;;;;;7.87;7.30;;;;;;;19.45;87.32;95500.13;5046900;28;20215;-69
2021/06/19 02:22:43;;;;;;;7.70;7.23;;;;;;;19.47;87.25;95492.66;5046565;28;20229;-68
2021/06/19 02:25:15;;;;;;;6.90;6.50;;;;;;;19.50;87.27;95492.19;5044170;28;20794;-69
2021/06/19 02:27:52;;;;;;;8.27;7.67;;;;;;;19.49;87.18;95492.44;5050993;28;20760;-68
2021/06/19 02:30:22;;;;;;;6.63;6.20;;;;;;;19.50;86.48;95497.56;5046901;28;20527;-69
2021/06/19 02:32:51;;;;;;;7.43;6.97;;;;;;;19.53;86.47;95505.09;5041572;28;20301;-69
2021/06/19 02:35:21;;;;;;;7.87;7.30;;;;;;;19.62;86.06;95502.03;5034540;28;20215;-69
2021/06/19 02:37:50;;;;;;;7.03;6.53;;;;;;;19.62;85.98;95507.41;5035407;28;20374;-69
2021/06/19 02:40:18;;;;;;;6.57;6.07;;;;;;;19.66;85.86;95506.69;5042796;28;20219;-70
2021/06/19 02:42:47;;;;;;;6.37;5.93;;;;;;;19.62;86.02;95504.72;5045574;28;20229;-69
2021/06/19 02:45:17;;;;;;;6.23;5.80;;;;;;;19.53;86.34;95513.13;5039672;28;20219;-68
2021/06/19 02:47:47;;;;;;;6.13;5.73;;;;;;;19.45;86.73;95497.47;5037911;28;20227;-69
2021/06/19 02:50:17;;;;;;;7.00;6.47;;;;;;;19.43;86.70;95504.94;5044364;28;20226;-69
2021/06/19 02:52:46;;;;;;;6.30;5.90;;;;;;;19.50;86.65;95513.63;5041257;28;20615;-67
2021/06/19 02:55:17;;;;;;;6.37;6.03;;;;;;;19.48;86.79;95510.38;5039666;28;20500;-68
2021/06/19 02:57:45;;;;;;;6.27;5.67;;;;;;;19.43;86.85;95506.78;5037978;28;20320;-67
2021/06/19 03:00:15;;;;;;;6.93;6.43;;;;;;;19.41;86.99;95507.03;5037225;28;20222;-67
2021/06/19 03:02:46;;;;;;;6.73;6.20;;;;;;;19.30;87.46;95505.25;5037012;28;20336;-67
2021/06/19 03:05:16;;;;;;;6.57;6.10;;;;;;;19.28;87.49;95499.31;5039883;28;20261;-67
2021/06/19 03:07:45;;;;;;;7.53;6.93;;;;;;;19.25;87.48;95510.50;5038604;28;20219;-67
2021/06/19 03:10:15;;;;;;;6.83;6.23;;;;;;;19.10;88.28;95507.56;5040626;28;20213;-68
2021/06/19 03:12:44;;;;;;;7.03;6.53;;;;;;;19.08;88.22;95498.97;5032604;28;20318;-66
2021/06/19 03:15:13;;;;;;;5.57;5.27;;;;;;;19.11;88.12;95509.19;5036694;28;20231;-68
2021/06/19 03:17:41;;;;;;;6.57;6.13;;;;;;;19.10;88.10;95512.91;5041388;28;20246;-68
2021/06/19 03:20:13;;;;;;;5.93;5.43;;;;;;;19.06;88.04;95506.44;5034510;28;20296;-68
2021/06/19 03:22:44;;;;;;;11.90;6.73;;;;;;;19.05;88.20;95508.28;5041691;28;20215;-68
2021/06/19 03:25:15;;;;;;;5.77;5.37;;;;;;;19.02;88.32;95519.47;5036188;28;20582;-68
2021/06/19 03:27:44;;;;;;;6.13;5.17;;;;;;;19.01;88.32;95521.31;5042173;28;20683;-68
2021/06/19 03:30:14;;;;;;;7.30;6.03;;;;;;;19.02;88.36;95535.53;5041641;28;20463;-68
2021/06/19 03:32:43;;;;;;;6.40;5.90;;;;;;;19.03;88.27;95529.94;5033658;28;20266;-68
2021/06/19 03:35:14;;;;;;;5.73;5.23;;;;;;;19.10;88.41;95532.44;5041654;28;20447;-67
2021/06/19 03:37:44;;;;;;;6.23;5.83;;;;;;;19.13;88.21;95533.84;5033121;28;20688;-68
2021/06/19 03:40:15;;;;;;;5.93;5.63;;;;;;;19.17;88.21;95537.66;5037222;28;20220;-68
2021/06/19 03:42:45;;;;;;;7.17;6.27;;;;;;;19.23;88.18;95534.03;5035985;28;20222;-68
2021/06/19 03:45:14;;;;;;;6.97;6.50;;;;;;;19.31;88.26;95550.50;5038178;28;21511;-67
2021/06/19 03:47:43;;;;;;;6.20;5.80;;;;;;;19.37;88.01;95550.56;5027188;28;20683;-67
2021/06/19 03:50:18;;;;;;;5.80;5.50;;;;;;;19.39;87.83;95553.84;5043678;28;20524;-67
2021/06/19 03:52:51;;;;;;;6.50;6.10;;;;;;;19.40;87.75;95560.81;5042404;28;20235;-67
2021/06/19 03:55:21;;;;;;;7.00;6.53;;;;;;;19.42;87.95;95567.53;5038429;28;94553;-67
2021/06/19 03:57:50;;;;;;;6.20;5.60;;;;;;;19.45;88.11;95575.06;5056032;28;20280;-67
2021/06/19 04:00:20;;;;;;;5.63;5.33;;;;;;;19.52;87.97;95575.75;5038177;28;20234;-67
2021/06/19 04:02:49;;;;;;;9.17;8.27;;;;;;;19.51;88.21;95574.13;5038869;28;20280;-67
2021/06/19 04:05:20;;;;;;;6.53;6.07;;;;;;;19.55;87.91;95585.13;5040485;28;20270;-67
2021/06/19 04:07:48;;;;;;;8.33;7.67;;;;;;;19.59;87.74;95573.75;5031768;28;20216;-67
2021/06/19 04:10:17;;;;;;;6.67;6.37;;;;;;;19.61;87.62;95573.50;5036826;28;20226;-67
2021/06/19 04:12:46;;;;;;;13.73;8.07;;;;;;;19.66;87.91;95570.94;5041312;28;20226;-67
2021/06/19 04:15:15;;;;;;;9.07;8.13;;;;;;;19.73;87.90;95578.78;5036870;28;20888;-67
2021/06/19 04:17:44;;;;;;;8.73;8.30;;;;;;;19.84;87.92;95583.25;5033083;28;20415;-67
2021/06/19 04:20:13;;;;;;;7.93;7.33;;;;;;;19.88;88.15;95589.75;5039430;28;20305;-69
2021/06/19 04:22:44;;;;;;;9.80;7.80;;;;;;;19.82;88.52;95591.53;5041690;28;20249;-67
2021/06/19 04:25:15;;;;;;;6.87;6.57;;;;;;;19.87;88.99;95590.81;5040989;28;20234;-66
2021/06/19 04:27:46;;;;;;;7.90;7.40;;;;;;;19.92;89.01;95600.78;5035703;28;20706;-67
2021/06/19 04:30:16;;;;;;;6.97;6.57;;;;;;;19.99;88.93;95594.19;5041023;28;20277;-66
2021/06/19 04:32:45;;;;;;;8.10;7.37;;;;;;;20.17;87.96;95610.03;5040142;28;20297;-66
2021/06/19 04:35:15;;;;;;;8.47;7.80;;;;;;;20.24;87.72;95614.41;5039057;28;20219;-66
2021/06/19 04:37:45;;;;;;;9.13;8.23;;;;;;;20.36;87.45;95607.06;5033848;28;20246;-67
2021/06/19 04:40:18;;;;;;;7.60;6.93;;;;;;;20.47;87.59;95613.41;5039140;28;20250;-66
2021/06/19 04:42:55;;;;;;;7.33;6.93;;;;;;;20.52;87.47;95614.31;5042326;28;20680;-67
2021/06/19 04:45:24;;;;;;;8.00;7.60;;;;;;;20.63;87.78;95616.06;5038568;28;20313;-66
2021/06/19 04:47:57;;;;;;;8.40;7.70;;;;;;;20.69;86.74;95620.44;5042040;28;20230;-66
2021/06/19 04:50:25;;;;;;;7.83;7.30;;;;;;;20.78;86.00;95622.69;5037601;28;20596;-67
2021/06/19 04:52:54;;;;;;;7.70;7.10;;;;;;;20.75;86.64;95626.66;5039620;28;20655;-66
2021/06/19 04:55:23;;;;;;;9.37;8.80;;;;;;;20.70;87.26;95626.63;5038667;28;20231;-67
2021/06/19 04:57:54;;;;;;;7.73;7.13;;;;;;;20.72;87.42;95632.53;5033959;28;20517;-66
2021/06/19 05:00:24;;;;;;;8.10;7.63;;;;;;;20.77;87.85;95629.13;5039755;28;20227;-66
2021/06/19 05:02:53;;;;;;;8.93;8.13;;;;;;;20.73;88.04;95626.91;5038280;28;20299;-66
2021/06/19 05:05:23;;;;;;;7.87;7.27;;;;;;;20.73;88.38;95637.66;5038559;28;20215;-67
2021/06/19 05:07:51;;;;;;;8.17;7.67;;;;;;;20.80;88.91;95644.72;5032857;28;20258;-67
2021/06/19 05:10:21;;;;;;;10.07;9.27;;;;;;;20.79;89.39;95643.91;5034098;28;20227;-66
2021/06/19 05:12:50;;;;;;;8.60;8.03;;;;;;;20.83;89.37;95644.22;5037941;28;20669;-67
2021/06/19 05:15:24;;;;;;;25.57;10.63;;;;;;;20.83;90.31;95650.38;5028467;28;20231;-67
2021/06/19 05:17:52;;;;;;;9.60;8.97;;;;;;;20.95;89.61;95651.09;5037793;28;20302;-66
2021/06/19 05:20:20;;;;;;;7.90;7.47;;;;;;;21.10;89.29;95649.66;5040600;28;20276;-67
2021/06/19 05:22:49;;;;;;;8.70;8.17;;;;;;;21.19;88.73;95651.63;5040060;28;20238;-67
2021/06/19 05:25:17;;;;;;;8.20;7.77;;;;;;;21.33;87.90;95659.34;5033454;28;20231;-67
2021/06/19 05:27:46;;;;;;;6.67;6.27;;;;;;;21.42;87.80;95663.22;5030553;28;20637;-67
2021/06/19 05:30:15;;;;;;;37.20;9.33;;;;;;;21.58;87.29;95668.50;5032403;28;20227;-69
2021/06/19 05:32:43;;;;;;;8.93;8.23;;;;;;;21.75;86.44;95667.56;5027820;28;20231;-69
2021/06/19 05:35:12;;;;;;;9.67;7.23;;;;;;;21.90;85.37;95661.53;5030292;28;20229;-69
2021/06/19 05:37:40;;;;;;;8.77;8.20;;;;;;;22.02;84.77;95662.19;5029883;28;20277;-69
2021/06/19 05:40:10;;;;;;;8.20;7.50;;;;;;;22.13;85.43;95663.94;5035468;28;20213;-69
2021/06/19 05:42:37;;;;;;;7.43;7.03;;;;;;;22.25;85.12;95669.13;5034046;28;20302;-69
2021/06/19 05:45:10;;;;;;;6.63;6.13;;;;;;;22.35;82.93;95661.97;5035171;28;20573;-68
2021/06/19 05:47:37;;;;;;;6.90;6.40;;;;;;;22.43;83.44;95663.38;5034536;28;20310;-69
2021/06/19 05:50:08;;;;;;;6.70;6.17;;;;;;;22.51;83.33;95662.88;5032777;28;20301;-69
2021/06/19 05:52:35;;;;;;;6.57;6.07;;;;;;;22.62;83.30;95669.94;5033874;28;20306;-69
2021/06/19 05:55:04;;;;;;;7.23;6.47;;;;;;;22.69;81.54;95667.03;5033473;28;20254;-69
2021/06/19 05:57:32;;;;;;;5.97;5.57;;;;;;;22.68;80.03;95666.22;5035603;28;20533;-69
2021/06/19 06:00:00;;;;;;;7.23;6.17;;;;;;;22.71;80.18;95664.88;5034905;28;20303;-68
2021/06/19 06:02:29;;;;;;;6.57;5.33;;;;;;;22.85;78.96;95668.75;5033365;28;20314;-68
2021/06/19 06:04:57;;;;;;;5.75;5.32;;;;;;;22.95;80.01;95671.53;5036124;28;20250;-67
2021/06/19 06:07:25;;;;;;;5.30;5.00;;;;;;;22.96;78.93;95672.34;5035655;28;20238;-69
2021/06/19 06:09:53;;;;;;;5.50;5.20;;;;;;;22.94;79.15;95667.19;5035693;28;20305;-69
2021/06/19 06:12:21;;;;;;;10.07;7.00;;;;;;;23.03;78.17;95664.00;5050215;28;20288;-68
2021/06/19 06:14:49;;;;;;;6.63;6.10;;;;;;;22.92;80.76;95666.66;5015029;28;20242;-69
2021/06/19 06:17:17;;;;;;;6.03;5.63;;;;;;;22.87;81.06;95669.31;5039643;28;20226;-69
2021/06/19 06:19:47;;;;;;;5.97;5.53;;;;;;;22.97;80.86;95664.00;5039601;28;20306;-69
2021/06/19 06:22:15;;;;;;;6.05;5.68;;;;;;;23.06;80.50;95667.00;5037722;28;20223;-67
2021/06/19 06:24:43;;;;;;;5.80;5.28;;;;;;;23.22;79.90;95663.28;5033538;28;20261;-67
2021/06/19 06:27:11;;;;;;;10.88;5.28;;;;;;;23.40;79.53;95662.00;5040359;28;20298;-67
2021/06/19 06:29:39;;;;;;;5.72;5.20;;;;;;;23.65;78.41;95663.19;5037102;28;20669;-69
2021/06/19 06:32:08;;;;;;;8.45;5.40;;;;;;;23.90;76.70;95671.31;5038218;28;20302;-69
2021/06/19 06:34:36;;;;;;;5.72;5.28;;;;;;;24.15;75.33;95667.84;5036967;28;20267;-69
2021/06/19 06:37:07;;;;;;;5.80;5.43;;;;;;;24.28;74.34;95663.78;5031853;28;20216;-69
2021/06/19 06:39:35;;;;;;;6.60;6.00;;;;;;;24.24;74.90;95670.81;5029619;28;20315;-69
2021/06/19 06:42:06;;;;;;;6.28;5.88;;;;;;;24.34;75.08;95674.34;5032642;28;20284;-69
2021/06/19 06:44:34;;;;;;;6.03;5.53;;;;;;;24.39;75.44;95676.22;5034873;28;20223;-69
2021/06/19 06:47:03;;;;;;;10.15;6.03;;;;;;;24.35;75.41;95677.84;5040450;28;20208;-69
2021/06/19 06:49:31;;;;;;;13.18;8.18;;;;;;;24.34;75.27;95681.63;5028183;28;20223;-69
2021/06/19 06:52:00;;;;;;;6.70;5.30;;;;;;;24.33;74.81;95686.22;5032439;28;20218;-69
2021/06/19 06:54:29;;;;;;;5.75;5.30;;;;;;;24.35;73.08;95685.94;5043666;28;20322;-70
2021/06/19 06:56:57;;;;;;;5.72;5.32;;;;;;;24.37;73.49;95683.78;5014160;28;20307;-70
2021/06/19 06:59:25;;;;;;;5.85;5.35;;;;;;;24.49;74.83;95681.63;5033888;28;20701;-69
2021/06/19 07:01:54;;;;;;;6.72;6.18;;;;;;;24.75;73.67;95682.41;5033342;28;20222;-69
2021/06/19 07:04:21;;;;;;;5.93;5.50;;;;;;;24.73;73.59;95689.97;5037631;28;20230;-69
2021/06/19 07:06:49;;;;;;;12.50;6.38;;;;;;;24.70;71.84;95684.31;5037442;28;20223;-69
2021/06/19 07:09:17;;;;;;;6.97;6.35;;;;;;;24.87;72.14;95690.19;5043269;28;20265;-69
2021/06/19 07:11:47;;;;;;;7.03;5.90;;;;;;;25.12;71.54;95692.06;5036109;28;20219;-70
2021/06/19 07:14:14;;;;;;;5.65;4.90;;;;;;;25.38;70.89;95687.38;5038157;28;20370;-69
2021/06/19 07:16:43;;;;;;;13.35;5.82;;;;;;;25.46;69.79;95692.22;5036577;28;20219;-69
2021/06/19 07:19:11;;;;;;;4.53;4.22;;;;;;;25.61;68.94;95686.75;5038600;28;20223;-69
2021/06/19 07:21:39;;;;;;;6.47;5.85;;;;;;;25.72;69.81;95684.81;5042605;28;20219;-67
2021/06/19 07:24:10;;;;;;;6.85;6.38;;;;;;;25.61;70.34;95686.75;5036280;28;20250;-67
2021/06/19 07:26:38;;;;;;;6.22;5.70;;;;;;;25.77;70.64;95691.00;5039738;28;20224;-67
2021/06/19 07:29:08;;;;;;;5.70;4.68;;;;;;;25.99;69.31;95685.19;5038023;28;20509;-67
2021/06/19 07:31:36;;;;;;;7.60;4.70;;;;;;;25.79;69.84;95686.13;5039281;28;20227;-66
2021/06/19 07:34:05;;;;;;;6.15;5.65;;;;;;;25.88;69.85;95674.72;5036734;28;20222;-66
2021/06/19 07:36:33;;;;;;;5.45;5.03;;;;;;;25.73;70.58;95676.44;5042663;28;20651;-67
2021/06/19 07:39:01;;;;;;;11.25;7.63;;;;;;;25.54;68.32;95678.13;5036754;28;20228;-64
2021/06/19 07:41:29;;;;;;;6.07;5.53;;;;;;;25.92;68.21;95673.06;5034580;28;20304;-66
2021/06/19 07:43:58;;;;;;;7.18;5.32;;;;;;;25.95;66.66;95662.50;5015740;28;20289;-66
2021/06/19 07:46:27;;;;;;;7.22;5.10;;;;;;;26.42;65.03;95655.66;5010006;28;20227;-66
2021/06/19 07:48:57;;;;;;;8.73;6.78;;;;;;;26.69;64.17;95660.56;5027964;28;20289;-66
2021/06/19 07:51:26;;;;;;;14.88;5.63;;;;;;;26.82;64.29;95649.06;5021186;28;20234;-66
2021/06/19 07:53:54;;;;;;;6.90;6.22;;;;;;;26.99;64.00;95645.13;5022980;28;20228;-66
2021/06/19 07:56:22;;;;;;;6.85;6.07;;;;;;;27.36;62.46;95636.31;5010911;28;20241;-66
2021/06/19 07:58:50;;;;;;;4.00;3.80;;;;;;;27.61;61.50;95640.56;5013674;28;20215;-65
2021/06/19 08:01:18;;;;;;;14.13;7.53;;;;;;;27.75;60.77;95628.72;5016239;28;20220;-66
2021/06/19 08:03:47;;;;;;;4.47;4.18;;;;;;;27.92;60.22;95639.06;5005646;28;20263;-65
2021/06/19 08:06:15;;;;;;;7.03;5.90;;;;;;;28.17;59.12;95634.34;5006278;28;20251;-66
2021/06/19 08:08:43;;;;;;;6.35;5.85;;;;;;;28.50;61.06;95629.75;5032940;28;20250;-66
2021/06/19 08:11:11;;;;;;;4.80;4.45;;;;;;;28.86;59.04;95621.75;5032288;28;20235;-67
2021/06/19 08:13:39;;;;;;;5.15;4.43;;;;;;;29.15;57.49;95619.56;5040784;28;20230;-67
2021/06/19 08:16:09;;;;;;;5.70;4.53;;;;;;;29.28;54.66;95626.13;5029637;28;20228;-66
2021/06/19 08:18:38;;;;;;;10.52;4.38;;;;;;;29.10;53.91;95619.69;5033045;28;20219;-66
2021/06/19 08:21:07;;;;;;;15.32;5.72;;;;;;;29.17;52.87;95619.31;5028392;28;20212;-66
2021/06/19 08:23:35;;;;;;;7.18;4.40;;;;;;;29.15;53.97;95622.28;5022196;28;20311;-66
2021/06/19 08:26:04;;;;;;;4.28;3.88;;;;;;;29.16;56.34;95620.38;5025378;28;20232;-66
2021/06/19 08:28:34;;;;;;;4.57;4.15;;;;;;;29.43;56.39;95619.56;5033105;28;20251;-66
2021/06/19 08:31:03;;;;;;;5.28;4.65;;;;;;;29.61;54.64;95617.84;5025979;28;20677;-66
2021/06/19 08:33:32;;;;;;;5.88;5.13;;;;;;;29.56;54.48;95621.50;5023485;28;20296;-65
2021/06/19 08:36:00;;;;;;;7.70;3.83;;;;;;;29.26;54.37;95622.09;5027031;28;20219;-66
2021/06/19 08:38:30;;;;;;;5.97;5.10;;;;;;;28.77;54.37;95615.41;5025453;28;20242;-66
2021/06/19 08:40:59;;;;;;;5.60;3.75;;;;;;;29.27;52.38;95615.56;5028519;28;20230;-66
2021/06/19 08:43:29;;;;;;;5.65;5.25;;;;;;;29.37;52.49;95615.34;5027384;28;20819;-66
2021/06/19 08:45:58;;;;;;;6.68;6.15;;;;;;;29.66;55.17;95604.94;5026137;28;20231;-66
2021/06/19 08:48:26;;;;;;;4.32;3.65;;;;;;;30.04;55.85;95610.06;5028667;28;20234;-66
2021/06/19 08:50:55;;;;;;;4.18;3.67;;;;;;;30.43;53.27;95608.56;5026943;28;20287;-64
2021/06/19 08:53:24;;;;;;;7.20;4.28;;;;;;;30.71;52.00;95596.41;5027383;28;20229;-67
2021/06/19 08:56:14;;;;;;;4.68;4.38;;;;;;;31.16;53.21;95599.00;5027749;28;20235;-65
2021/06/19 08:58:42;;;;;;;4.60;4.22;;;;;;;31.54;52.22;95593.00;5027777;28;20262;-66
2021/06/19 09:01:11;;;;;;;9.05;4.22;;;;;;;31.70;49.71;95594.97;5030221;28;20215;-67
2021/06/19 09:03:39;;;;;;;4.28;3.90;;;;;;;31.81;48.96;95579.09;5028081;28;20695;-67
2021/06/19 09:06:20;;;;;;;6.38;4.00;;;;;;;31.86;48.88;95581.69;5034806;28;20728;-66
2021/06/19 09:09:09;;;;;;;6.55;3.78;;;;;;;31.64;49.81;95585.34;5027510;28;20253;-65
2021/06/19 09:11:40;;;;;;;9.75;4.43;;;;;;;31.88;49.38;95579.44;5037196;28;20898;-65
2021/06/19 09:14:10;;;;;;;5.18;4.75;;;;;;;32.03;48.35;95574.63;5032978;28;20281;-67
2021/06/19 09:16:40;;;;;;;6.70;4.38;;;;;;;32.20;49.43;95560.94;5040189;28;20215;-65
2021/06/19 09:19:24;;;;;;;4.53;4.22;;;;;;;32.30;47.80;95568.00;5037563;28;20234;-66
2021/06/19 09:22:16;;;;;;;3.50;3.28;;;;;;;32.30;46.83;95568.00;5039514;28;20258;-67
2021/06/19 09:24:46;;;;;;;11.23;5.38;;;;;;;32.12;45.70;95567.22;5040161;28;20227;-68
2021/06/19 09:27:37;;;;;;;5.70;4.97;;;;;;;31.85;46.28;95573.81;5031308;28;20829;-68
2021/06/19 09:30:07;;;;;;;5.53;4.03;;;;;;;31.72;46.67;95567.34;5042706;28;20219;-68
2021/06/19 09:32:44;;;;;;;6.90;4.03;;;;;;;31.76;48.68;95560.19;5026346;28;20239;-68
2021/06/19 09:35:14;;;;;;;5.60;4.95;;;;;;;31.91;47.67;95567.88;5037561;28;20250;-69
2021/06/19 09:37:44;;;;;;;4.30;4.00;;;;;;;31.97;47.67;95573.97;5032153;28;20216;-68
2021/06/19 09:40:28;;;;;;;5.28;4.97;;;;;;;31.97;47.40;95572.03;5039663;28;20207;-68
2021/06/19 09:43:10;;;;;;;5.97;4.28;;;;;;;31.99;47.62;95580.69;5031444;28;20211;-68
2021/06/19 09:45:40;;;;;;;5.88;4.75;;;;;;;31.84;46.15;95572.22;5030582;28;20277;-67
2021/06/19 09:48:24;;;;;;;8.38;5.82;;;;;;;32.07;47.53;95570.09;5038559;28;20302;-68
2021/06/19 09:51:14;;;;;;;5.85;5.28;;;;;;;32.44;49.85;95574.09;5036199;28;20273;-68
2021/06/19 09:53:44;;;;;;;5.60;3.90;;;;;;;32.97;48.82;95567.34;5024540;28;20250;-68
2021/06/19 09:56:13;;;;;;;4.25;3.85;;;;;;;33.40;48.02;95567.13;5036785;28;20281;-69
2021/06/19 09:58:44;;;;;;;6.38;5.78;;;;;;;33.56;45.46;95573.63;5032557;28;20305;-70
2021/06/19 10:01:34;;;;;;;5.95;5.38;;;;;;;33.51;45.22;95573.81;5031110;28;20222;-67
2021/06/19 10:04:04;;;;;;;4.03;3.83;;;;;;;33.49;45.70;95573.34;5043525;28;20211;-68
2021/06/19 10:06:36;;;;;;;6.45;5.40;;;;;;;33.54;45.15;95567.66;5029707;28;20318;-69
2021/06/19 10:09:05;;;;;;;6.47;4.45;;;;;;;33.38;44.82;95569.41;5031303;28;20207;-69
2021/06/19 10:11:34;;;;;;;5.72;4.53;;;;;;;33.21;46.00;95561.28;5040341;28;21070;-68
2021/06/19 10:14:04;;;;;;;6.28;5.10;;;;;;;33.19;46.42;95563.50;5029211;28;20229;-68
2021/06/19 10:16:32;;;;;;;6.65;6.05;;;;;;;33.42;46.92;95559.38;5039946;28;20258;-69
2021/06/19 10:19:00;;;;;;;4.78;4.38;;;;;;;33.59;44.33;95561.22;5037239;28;20229;-68
2021/06/19 10:21:28;;;;;;;5.97;5.57;;;;;;;33.63;46.32;95562.94;5043694;28;20736;-68
2021/06/19 10:23:57;;;;;;;4.50;4.20;;;;;;;33.85;45.51;95555.53;5040746;28;20211;-69
2021/06/19 10:26:25;;;;;;;5.75;5.18;;;;;;;33.98;43.68;95557.22;5039795;28;20309;-69
2021/06/19 10:28:57;;;;;;;7.30;5.70;;;;;;;33.45;44.15;95555.97;5041219;28;20241;-68
2021/06/19 10:31:27;;;;;;;6.22;4.88;;;;;;;33.05;44.63;95552.81;5036724;28;20276;-67
2021/06/19 10:33:55;;;;;;;5.70;5.28;;;;;;;32.98;45.46;95544.31;5042240;28;20243;-68
2021/06/19 10:36:38;;;;;;;4.97;4.53;;;;;;;33.13;45.90;95551.97;5041560;28;20254;-68
2021/06/19 10:39:06;;;;;;;8.85;4.05;;;;;;;33.13;44.30;95541.03;5036523;28;20692;-69
2021/06/19 10:41:49;;;;;;;5.57;4.75;;;;;;;32.88;45.33;95540.03;5040189;28;20226;-68
2021/06/19 10:44:48;;;;;;;4.97;4.20;;;;;;;32.61;45.48;95529.50;5036241;28;20223;-67
2021/06/19 10:47:18;;;;;;;5.85;4.82;;;;;;;32.67;46.15;95530.94;5045391;28;20242;-68
2021/06/19 10:49:47;;;;;;;5.75;5.05;;;;;;;32.92;46.34;95521.88;5035740;28;20247;-67
2021/06/19 10:52:24;;;;;;;6.05;5.60;;;;;;;33.31;45.96;95523.38;5045319;28;20239;-66
2021/06/19 10:55:29;;;;;;;8.18;4.65;;;;;;;33.22;45.35;95517.19;5035505;28;20230;-66
2021/06/19 10:58:01;;;;;;;4.50;4.20;;;;;;;33.63;46.12;95510.13;5039144;28;20214;-66
2021/06/19 11:00:34;;;;;;;4.55;4.25;;;;;;;34.16;45.94;95511.28;5036122;28;20219;-67
2021/06/19 11:03:06;;;;;;;4.85;4.40;;;;;;;34.43;42.79;95505.22;5036233;28;20306;-67
2021/06/19 11:05:57;;;;;;;4.93;4.60;;;;;;;34.50;42.60;95505.47;5037853;28;20318;-69
2021/06/19 11:08:26;;;;;;;6.10;5.05;;;;;;;34.44;42.32;95495.06;5032245;28;20638;-69
2021/06/19 11:10:57;;;;;;;4.10;3.90;;;;;;;34.32;43.27;95486.78;5036569;28;20631;-69
2021/06/19 11:13:45;;;;;;;6.45;5.10;;;;;;;34.19;42.34;95478.53;5039153;28;20238;-69
2021/06/19 11:16:49;;;;;;;5.25;4.20;;;;;;;34.34;42.96;95484.50;5045047;28;20235;-69
2021/06/19 11:19:40;;;;;;;11.93;6.38;;;;;;;34.51;43.73;95478.84;5035854;28;20266;-69
2021/06/19 11:22:29;;;;;;;7.75;5.57;;;;;;;34.47;42.46;95472.44;5039839;28;20218;-68
2021/06/19 11:25:21;;;;;;;6.10;4.13;;;;;;;34.56;44.43;95459.44;5040568;28;20246;-69
2021/06/19 11:27:56;;;;;;;11.68;5.40;;;;;;;34.65;41.35;95457.38;5040385;28;20223;-69
2021/06/19 11:30:50;;;;;;;5.30;4.90;;;;;;;34.48;41.78;95457.63;5044107;28;20226;-69
2021/06/19 11:33:43;;;;;;;3.88;3.67;;;;;;;34.27;41.96;95451.38;5036710;28;20246;-68
2021/06/19 11:36:32;;;;;;;5.88;5.30;;;;;;;34.19;42.52;95444.84;5043678;28;20234;-69
2021/06/19 11:39:08;;;;;;;5.68;5.20;;;;;;;34.31;44.02;95452.31;5035278;28;20207;-69
2021/06/19 11:41:41;;;;;;;5.82;5.38;;;;;;;34.43;42.35;95446.88;5039962;28;20230;-68
2021/06/19 11:44:16;;;;;;;5.18;4.78;;;;;;;34.35;43.40;95436.78;5041064;28;20706;-68
2021/06/19 11:46:52;;;;;;;8.38;5.30;;;;;;;34.09;43.24;95434.34;5033850;28;20711;-68
2021/06/19 11:49:25;;;;;;;7.32;4.60;;;;;;;34.39;44.82;95426.78;5034409;28;20226;-68